Time;durP1;ratioP1;P1;durP2;ratioP2;P2;SDS_P1;SDS_P2;PMS_P1;PMS_P2;Temp;Humidity;BMP_temperature;BMP_pressure;BME280_temperature;BME280_humidity;BME280_pressure;Samples;Min_cycle;Max_cycle;Signal;HPM_P1;HPM_P2
2023/02/27 00:00:22;;;;;;;0.40;0.40;;;-1.40;86.60;;;;;;5041096;28;20209;-66
2023/02/27 00:02:50;;;;;;;5.00;1.23;;;-1.30;86.20;;;;;;5034031;28;20200;-67
2023/02/27 00:05:18;;;;;;;0.75;0.75;;;-1.20;85.90;;;;;;5028813;28;20950;-67
2023/02/27 00:07:45;;;;;;;0.32;0.32;;;-1.30;86.00;;;;;;5039279;28;20202;-66
2023/02/27 00:10:14;;;;;;;0.50;0.50;;;-1.30;86.30;;;;;;5045158;28;20211;-67
2023/02/27 00:12:41;;;;;;;0.50;0.50;;;-1.30;86.30;;;;;;5046626;28;20196;-67
2023/02/27 00:15:09;;;;;;;0.55;0.55;;;-1.30;87.40;;;;;;5047843;28;20201;-67
2023/02/27 00:17:36;;;;;;;0.50;0.50;;;-1.30;86.30;;;;;;5048028;28;20210;-67
2023/02/27 00:20:03;;;;;;;0.30;0.30;;;-1.30;86.20;;;;;;5046465;28;20203;-67
2023/02/27 00:22:30;;;;;;;0.50;0.50;;;-1.30;86.20;;;;;;5038325;28;20326;-67
2023/02/27 00:24:57;;;;;;;0.38;0.38;;;-1.20;86.10;;;;;;5047329;28;20203;-67
2023/02/27 00:27:25;;;;;;;0.30;0.30;;;-1.40;86.10;;;;;;5047623;28;20232;-67
2023/02/27 00:29:52;;;;;;;0.40;0.40;;;-1.30;86.30;;;;;;5026802;28;20207;-66
2023/02/27 00:32:19;;;;;;;0.40;0.40;;;-1.30;86.00;;;;;;5026334;28;20238;-66
2023/02/27 00:34:45;;;;;;;0.40;0.40;;;-1.30;86.20;;;;;;5038444;28;20203;-66
2023/02/27 00:37:12;;;;;;;0.85;0.80;;;-1.30;87.30;;;;;;5046744;28;20242;-67
2023/02/27 00:39:39;;;;;;;1.13;1.13;;;-1.10;87.60;;;;;;5049140;28;20201;-66
2023/02/27 00:42:06;;;;;;;0.50;0.50;;;-1.20;86.30;;;;;;5056164;28;20247;-67
2023/02/27 00:44:34;;;;;;;0.35;0.35;;;-1.20;86.60;;;;;;5035586;28;20196;-66
2023/02/27 00:47:01;;;;;;;0.50;0.50;;;-1.20;86.40;;;;;;5035433;28;20222;-67
2023/02/27 00:49:27;;;;;;;0.50;0.50;;;-1.30;86.60;;;;;;5045015;28;20206;-67
2023/02/27 00:51:54;;;;;;;2.67;0.68;;;-1.30;86.30;;;;;;5046314;28;20226;-67
2023/02/27 00:54:21;;;;;;;0.50;0.50;;;-1.20;86.10;;;;;;5046856;28;20668;-67
2023/02/27 00:56:48;;;;;;;0.40;0.40;;;-1.30;85.80;;;;;;5047253;28;20241;-68
2023/02/27 00:59:15;;;;;;;0.50;0.50;;;-1.30;85.80;;;;;;5048486;28;20202;-67
2023/02/27 01:01:43;;;;;;;0.32;0.32;;;-1.30;86.00;;;;;;5038052;28;20321;-67
2023/02/27 01:04:10;;;;;;;0.40;0.40;;;-1.30;85.80;;;;;;5044774;28;20228;-66
2023/02/27 01:06:37;;;;;;;0.52;0.52;;;-1.30;85.80;;;;;;5046303;28;20238;-66
2023/02/27 01:09:04;;;;;;;0.82;0.82;;;;;;;;;;5046213;28;20214;-67
2023/02/27 01:11:31;;;;;;;0.40;0.40;;;;;;;;;;5047086;28;20229;-67
2023/02/27 01:13:58;;;;;;;0.75;0.70;;;-1.40;86.10;;;;;;5039499;28;20210;-67
2023/02/27 01:16:25;;;;;;;0.40;0.40;;;-1.40;92.80;;;;;;5025450;28;20926;-66
2023/02/27 01:18:53;;;;;;;0.60;0.60;;;-1.30;86.80;;;;;;5035641;28;20206;-67
2023/02/27 01:21:20;;;;;;;0.40;0.40;;;-1.30;86.20;;;;;;5046036;28;20244;-66
2023/02/27 01:23:47;;;;;;;0.50;0.50;;;-1.40;86.30;;;;;;5030103;28;20204;-66
2023/02/27 01:26:14;;;;;;;1.85;0.77;;;;;;;;;;5026766;28;20235;-67
2023/02/27 01:28:41;;;;;;;0.40;0.40;;;-1.40;86.10;;;;;;5036497;28;20202;-66
2023/02/27 01:31:08;;;;;;;0.45;0.45;;;-1.30;86.60;;;;;;5046850;28;20242;-67
2023/02/27 01:33:35;;;;;;;0.35;0.35;;;-1.30;86.40;;;;;;5029698;28;20614;-67
2023/02/27 01:36:03;;;;;;;0.73;0.73;;;-1.40;86.60;;;;;;5026660;28;20238;-67
2023/02/27 01:38:30;;;;;;;0.40;0.40;;;-1.30;86.70;;;;;;5025846;28;20366;-67
2023/02/27 01:40:59;;;;;;;2.50;2.40;;;-1.50;86.60;;;;;;5053388;28;20227;-66
2023/02/27 01:43:26;;;;;;;0.50;0.50;;;-1.50;87.10;;;;;;5033069;28;20196;-66
2023/02/27 01:45:53;;;;;;;0.70;0.70;;;-1.40;87.30;;;;;;5030563;28;20239;-67
2023/02/27 01:48:23;;;;;;;0.40;0.40;;;-1.50;87.30;;;;;;5036132;28;20201;-67
2023/02/27 01:50:56;;;;;;;0.40;0.40;;;-1.40;88.30;;;;;;5050788;28;20229;-67
2023/02/27 01:53:26;;;;;;;0.40;0.40;;;-1.40;87.50;;;;;;5049584;28;20208;-66
2023/02/27 01:55:56;;;;;;;0.68;0.68;;;-1.50;87.50;;;;;;5050552;28;20239;-67
2023/02/27 01:58:23;;;;;;;0.40;0.40;;;-1.40;87.80;;;;;;5051851;28;20193;-67
2023/02/27 02:00:51;;;;;;;0.50;0.50;;;-1.50;87.80;;;;;;5047140;28;20230;-66
2023/02/27 02:03:25;;;;;;;0.50;0.50;;;-1.50;87.80;;;;;;5043445;28;20201;-67
2023/02/27 02:05:55;;;;;;;0.40;0.40;;;-1.60;87.80;;;;;;5050541;28;20592;-67
2023/02/27 02:08:26;;;;;;;0.40;0.40;;;-1.50;87.80;;;;;;5048844;28;20974;-66
2023/02/27 02:10:55;;;;;;;1.00;1.00;;;-1.60;88.10;;;;;;5050366;28;20232;-66
2023/02/27 02:13:22;;;;;;;0.65;0.65;;;-1.60;93.00;;;;;;5048913;28;20610;-67
2023/02/27 02:16:10;;;;;;;0.40;0.40;;;-1.60;88.60;;;;;;5048254;28;20711;-67
2023/02/27 02:18:49;;;;;;;0.75;0.65;;;-1.50;88.60;;;;;;5039523;28;20267;-66
2023/02/27 02:21:57;;;;;;;0.57;0.57;;;-1.60;88.70;;;;;;5029829;28;20322;-66
2023/02/27 02:25:02;;;;;;;0.80;0.80;;;-1.60;88.60;;;;;;5030011;28;20224;-67
2023/02/27 02:27:45;;;;;;;0.50;0.50;;;-1.60;89.10;;;;;;5029607;28;20242;-66
2023/02/27 02:30:56;;;;;;;0.95;0.95;;;-1.50;88.60;;;;;;5027832;28;20715;-67
2023/02/27 02:33:56;;;;;;;3.35;1.27;;;-1.50;88.80;;;;;;5038744;28;20200;-66
2023/02/27 02:36:48;;;;;;;0.55;0.55;;;-1.60;92.70;;;;;;5020323;28;20258;-66
2023/02/27 02:39:32;;;;;;;0.40;0.40;;;-1.50;89.20;;;;;;5048714;28;20673;-66
2023/02/27 02:42:04;;;;;;;1.38;1.20;;;-1.50;89.50;;;;;;5059231;28;20320;-66
2023/02/27 02:44:44;;;;;;;0.50;0.50;;;-1.50;89.50;;;;;;5029921;28;20228;-66
2023/02/27 02:47:21;;;;;;;0.60;0.60;;;-1.40;93.30;;;;;;5029455;28;20239;-66
2023/02/27 02:49:56;;;;;;;1.00;0.93;;;-1.50;89.40;;;;;;5028931;28;20291;-67
2023/02/27 02:52:29;;;;;;;0.60;0.60;;;-1.50;89.50;;;;;;5029573;28;20630;-67
2023/02/27 02:55:06;;;;;;;0.50;0.50;;;-1.80;93.40;;;;;;5028207;28;20238;-68
2023/02/27 02:57:38;;;;;;;1.08;1.08;;;-1.60;90.10;;;;;;5029274;28;20826;-67
2023/02/27 03:00:10;;;;;;;0.93;0.80;;;-1.60;90.10;;;;;;5057108;28;20208;-66
2023/02/27 03:02:43;;;;;;;0.55;0.55;;;-1.50;90.20;;;;;;5029899;28;20310;-67
2023/02/27 03:05:15;;;;;;;0.80;0.80;;;-1.60;90.10;;;;;;5049292;28;20224;-67
2023/02/27 03:07:47;;;;;;;0.50;0.50;;;-1.90;93.20;;;;;;5039428;28;20203;-66
2023/02/27 03:10:19;;;;;;;1.05;0.98;;;-1.60;90.10;;;;;;5047844;28;20263;-68
2023/02/27 03:12:52;;;;;;;0.50;0.50;;;-1.50;90.20;;;;;;5048919;28;20210;-67
2023/02/27 03:15:23;;;;;;;1.02;0.73;;;-1.60;90.20;;;;;;5047160;28;20205;-67
2023/02/27 03:17:54;;;;;;;1.08;0.90;;;-1.60;90.40;;;;;;5043773;28;20231;-66
2023/02/27 03:20:24;;;;;;;0.68;0.68;;;-1.70;93.10;;;;;;5027714;28;20662;-66
2023/02/27 03:22:56;;;;;;;0.60;0.60;;;-1.70;90.40;;;;;;5036140;28;20287;-67
2023/02/27 03:25:26;;;;;;;0.40;0.40;;;-1.70;90.40;;;;;;5048482;28;20210;-67
2023/02/27 03:27:58;;;;;;;0.60;0.60;;;-1.60;90.50;;;;;;5046034;28;20727;-67
2023/02/27 03:30:30;;;;;;;0.68;0.65;;;-1.70;90.50;;;;;;5027350;28;20791;-67
2023/02/27 03:33:02;;;;;;;1.05;1.05;;;-1.60;90.40;;;;;;5035489;28;20203;-67
2023/02/27 03:35:37;;;;;;;0.68;0.68;;;-1.60;90.40;;;;;;5028590;28;20220;-67
2023/02/27 03:38:11;;;;;;;0.50;0.50;;;-1.60;90.50;;;;;;5028079;28;20770;-67
2023/02/27 03:40:49;;;;;;;0.60;0.60;;;-1.60;90.50;;;;;;5051633;28;20764;-67
2023/02/27 03:43:21;;;;;;;0.32;0.32;;;-1.60;90.50;;;;;;5043046;28;20610;-67
2023/02/27 03:45:55;;;;;;;0.50;0.50;;;-1.60;90.50;;;;;;5047619;28;20253;-67
2023/02/27 03:48:23;;;;;;;1.10;1.10;;;-1.70;90.70;;;;;;5042870;28;20202;-66
2023/02/27 03:50:52;;;;;;;0.50;0.50;;;-1.70;90.70;;;;;;5028364;28;20221;-67
2023/02/27 03:53:28;;;;;;;1.02;0.88;;;-1.60;90.70;;;;;;5027694;28;20212;-68
2023/02/27 03:55:57;;;;;;;0.47;0.47;;;-1.60;90.60;;;;;;5028288;28;20559;-67
2023/02/27 03:58:25;;;;;;;6.40;1.25;;;-1.70;90.70;;;;;;5040794;28;20205;-68
2023/02/27 04:00:53;;;;;;;0.70;0.70;;;-1.70;90.90;;;;;;5045060;28;20226;-67
2023/02/27 04:03:21;;;;;;;0.40;0.40;;;-1.80;90.90;;;;;;5041497;28;20240;-67
2023/02/27 04:05:49;;;;;;;0.60;0.60;;;-1.80;90.90;;;;;;5047448;28;20302;-68
2023/02/27 04:08:41;;;;;;;0.60;0.60;;;-1.70;90.90;;;;;;5046705;28;20202;-67
2023/02/27 04:11:32;;;;;;;0.65;0.65;;;-1.70;90.80;;;;;;5047857;28;20706;-67
2023/02/27 04:14:28;;;;;;;1.23;1.13;;;-1.70;90.90;;;;;;5037746;28;20212;-67
2023/02/27 04:17:08;;;;;;;2.53;0.88;;;-1.70;91.10;;;;;;5046141;28;20233;-66
2023/02/27 04:19:52;;;;;;;0.82;0.82;;;-1.80;91.00;;;;;;5028258;28;20206;-67
2023/02/27 04:22:30;;;;;;;0.30;0.30;;;-1.80;91.00;;;;;;5030691;28;20272;-67
2023/02/27 04:25:06;;;;;;;0.57;0.52;;;-1.80;91.20;;;;;;5047470;28;20201;-67
2023/02/27 04:27:40;;;;;;;0.40;0.40;;;-1.80;91.00;;;;;;5039386;28;20202;-67
2023/02/27 04:30:20;;;;;;;0.95;0.85;;;-1.80;91.10;;;;;;5026609;28;20206;-66
2023/02/27 04:32:52;;;;;;;0.50;0.50;;;-1.90;91.20;;;;;;5036123;28;20214;-67
2023/02/27 04:35:25;;;;;;;0.82;0.82;;;-1.80;91.30;;;;;;5027486;28;20211;-67
2023/02/27 04:37:57;;;;;;;0.50;0.50;;;-1.80;91.30;;;;;;5027657;28;20825;-67
2023/02/27 04:40:29;;;;;;;0.38;0.38;;;-1.80;91.20;;;;;;5053585;28;20313;-67
2023/02/27 04:42:59;;;;;;;0.50;0.50;;;-1.80;91.30;;;;;;5037864;28;20261;-67
2023/02/27 04:45:28;;;;;;;0.75;0.75;;;-1.70;91.10;;;;;;5026892;28;20226;-68
2023/02/27 04:48:00;;;;;;;0.60;0.60;;;-1.80;91.20;;;;;;5027341;28;20200;-67
2023/02/27 04:50:32;;;;;;;0.45;0.45;;;-1.80;91.20;;;;;;5045003;28;20229;-67
2023/02/27 04:53:05;;;;;;;0.40;0.40;;;-1.80;91.20;;;;;;5046397;28;20200;-67
2023/02/27 04:55:35;;;;;;;0.60;0.60;;;-1.90;91.20;;;;;;5046982;28;20685;-67
2023/02/27 04:58:09;;;;;;;1.35;1.25;;;-1.80;91.40;;;;;;5046982;28;20676;-67
2023/02/27 05:00:37;;;;;;;0.40;0.40;;;-1.80;91.30;;;;;;5039464;28;20216;-67
2023/02/27 05:03:11;;;;;;;1.42;1.42;;;-1.70;91.20;;;;;;5038453;28;20229;-67
2023/02/27 05:05:41;;;;;;;0.47;0.47;;;-1.80;91.10;;;;;;5047059;28;20228;-67
2023/02/27 05:08:15;;;;;;;0.50;0.50;;;-1.80;91.60;;;;;;5046099;28;20250;-67
2023/02/27 05:10:49;;;;;;;2.25;1.42;;;-1.90;91.40;;;;;;5046934;28;20231;-67
2023/02/27 05:13:20;;;;;;;1.02;1.02;;;-1.90;91.50;;;;;;5046679;28;20233;-67
2023/02/27 05:15:52;;;;;;;0.60;0.60;;;-1.90;91.50;;;;;;5045458;28;20244;-66
2023/02/27 05:18:21;;;;;;;0.60;0.60;;;-1.90;91.50;;;;;;5042029;28;20948;-67
2023/02/27 05:21:00;;;;;;;0.50;0.50;;;-1.90;94.10;;;;;;5030416;28;20277;-67
2023/02/27 05:23:36;;;;;;;0.55;0.55;;;-1.90;91.50;;;;;;5043949;28;20220;-67
2023/02/27 05:26:14;;;;;;;0.50;0.50;;;-1.90;91.40;;;;;;5051020;28;20224;-67
2023/02/27 05:28:51;;;;;;;0.50;0.50;;;-1.90;91.50;;;;;;5050166;28;20215;-67
2023/02/27 05:31:25;;;;;;;1.02;1.02;;;-1.90;91.50;;;;;;5049496;28;20306;-67
2023/02/27 05:33:58;;;;;;;0.50;0.50;;;-2.00;91.50;;;;;;5031367;28;20200;-67
2023/02/27 05:36:33;;;;;;;0.63;0.63;;;-1.90;91.50;;;;;;5029761;28;20276;-67
2023/02/27 05:39:02;;;;;;;0.55;0.55;;;-2.00;91.50;;;;;;5033880;28;20613;-67
2023/02/27 05:41:33;;;;;;;0.50;0.50;;;-1.90;91.80;;;;;;5061365;28;20699;-67
2023/02/27 05:44:06;;;;;;;0.57;0.57;;;-2.00;91.40;;;;;;5042103;28;20722;-67
2023/02/27 05:46:35;;;;;;;1.70;1.40;;;-2.00;91.60;;;;;;5027928;28;21587;-67
2023/02/27 05:49:07;;;;;;;0.80;0.80;;;-2.00;91.50;;;;;;5026711;28;20197;-66
2023/02/27 05:51:37;;;;;;;1.25;0.82;;;-2.00;91.60;;;;;;5029208;28;20236;-67
2023/02/27 05:54:10;;;;;;;0.50;0.50;;;-1.90;91.60;;;;;;5030587;28;20250;-68
2023/02/27 05:56:38;;;;;;;0.40;0.40;;;-1.90;91.40;;;;;;5030749;28;20616;-67
2023/02/27 05:59:11;;;;;;;1.05;1.05;;;-1.90;91.30;;;;;;5052217;28;20206;-67
2023/02/27 06:01:38;;;;;;;0.40;0.40;;;-1.90;91.30;;;;;;5035034;28;20226;-68
2023/02/27 06:04:05;;;;;;;0.80;0.80;;;-2.00;91.30;;;;;;5030266;28;20234;-67
2023/02/27 06:06:32;;;;;;;0.40;0.40;;;-1.90;94.00;;;;;;5031110;28;20237;-67
2023/02/27 06:08:59;;;;;;;1.10;1.10;;;-1.90;91.30;;;;;;5047482;28;21204;-67
2023/02/27 06:11:25;;;;;;;1.45;1.45;;;-1.90;91.40;;;;;;5050466;28;20230;-67
2023/02/27 06:13:52;;;;;;;1.75;0.98;;;-1.90;91.40;;;;;;5035940;28;20201;-67
2023/02/27 06:16:20;;;;;;;0.50;0.50;;;-1.90;94.60;;;;;;5031284;28;20238;-67
2023/02/27 06:18:47;;;;;;;0.63;0.60;;;-2.00;91.30;;;;;;5043081;28;20264;-67
2023/02/27 06:21:14;;;;;;;0.77;0.77;;;-2.10;91.50;;;;;;5047258;28;20233;-67
2023/02/27 06:23:41;;;;;;;0.80;0.80;;;-2.10;91.50;;;;;;5049065;28;20314;-67
2023/02/27 06:26:12;;;;;;;0.68;0.68;;;-2.10;91.60;;;;;;5049612;28;20229;-66
2023/02/27 06:28:39;;;;;;;0.40;0.40;;;-2.00;91.60;;;;;;5046568;28;20197;-67
2023/02/27 06:31:06;;;;;;;0.63;0.63;;;-2.00;91.50;;;;;;5049308;28;20237;-66
2023/02/27 06:33:34;;;;;;;0.50;0.50;;;-1.90;91.50;;;;;;5040441;28;20219;-67
2023/02/27 06:36:01;;;;;;;0.40;0.40;;;-2.00;91.40;;;;;;5027910;28;20241;-67
2023/02/27 06:38:27;;;;;;;1.58;1.48;;;-2.00;91.50;;;;;;5030790;28;20941;-66
2023/02/27 06:40:54;;;;;;;0.60;0.60;;;-2.00;91.70;;;;;;5062139;28;20309;-67
2023/02/27 06:43:22;;;;;;;0.82;0.82;;;-2.00;91.50;;;;;;5034058;28;20228;-66
2023/02/27 06:45:49;;;;;;;0.60;0.60;;;-2.00;91.70;;;;;;5028146;28;20225;-67
2023/02/27 06:48:15;;;;;;;0.70;0.70;;;-2.00;91.60;;;;;;5033659;28;20204;-68
2023/02/27 06:50:44;;;;;;;1.20;1.20;;;-2.00;91.70;;;;;;5048247;28;20234;-67
2023/02/27 06:53:10;;;;;;;0.50;0.50;;;-2.00;91.70;;;;;;5047817;28;20200;-67
2023/02/27 06:55:37;;;;;;;0.60;0.60;;;-2.00;91.70;;;;;;5049403;28;20250;-67
2023/02/27 06:58:04;;;;;;;0.80;0.80;;;-1.90;91.70;;;;;;5048834;28;21424;-67
2023/02/27 07:00:31;;;;;;;0.90;0.90;;;-1.80;91.70;;;;;;5051646;28;20749;-67
2023/02/27 07:02:57;;;;;;;0.70;0.70;;;-1.80;91.60;;;;;;5032946;28;20225;-67
2023/02/27 07:05:24;;;;;;;0.50;0.50;;;-1.80;91.60;;;;;;5046661;28;20224;-67
2023/02/27 07:07:52;;;;;;;1.00;1.00;;;-1.80;91.40;;;;;;5045913;28;20217;-68
2023/02/27 07:10:19;;;;;;;0.60;0.60;;;-1.70;91.40;;;;;;5046276;28;20828;-67
2023/02/27 07:12:46;;;;;;;0.75;0.75;;;-1.70;91.30;;;;;;5044467;28;20200;-68
2023/02/27 07:15:13;;;;;;;0.40;0.40;;;-1.50;91.20;;;;;;5045743;28;20210;-67
2023/02/27 07:17:40;;;;;;;0.45;0.45;;;-0.10;90.90;;;;;;5045458;28;20210;-67
2023/02/27 07:20:10;;;;;;;0.40;0.40;;;-1.30;90.50;;;;;;5045592;28;20289;-68
2023/02/27 07:22:37;;;;;;;0.50;0.50;;;-1.10;90.50;;;;;;5032665;28;20225;-67
2023/02/27 07:25:07;;;;;;;0.93;0.68;;;-1.10;90.00;;;;;;5047383;28;20222;-67
2023/02/27 07:27:34;;;;;;;0.40;0.40;;;-1.10;90.00;;;;;;5046977;28;20695;-68
2023/02/27 07:30:01;;;;;;;0.52;0.52;;;-1.00;92.50;;;;;;5040858;28;20309;-68
2023/02/27 07:32:28;;;;;;;3.60;1.48;;;-1.00;89.20;;;;;;5047110;28;20211;-66
2023/02/27 07:34:55;;;;;;;0.30;0.30;;;-0.90;89.50;;;;;;5047445;28;20569;-66
2023/02/27 07:37:21;;;;;;;1.50;0.70;;;-0.90;89.70;;;;;;5045161;28;20764;-67
2023/02/27 07:39:49;;;;;;;0.52;0.52;;;-0.80;89.30;;;;;;5045968;28;20198;-66
2023/02/27 07:42:17;;;;;;;0.43;0.43;;;-0.80;89.20;;;;;;5048435;28;20227;-68
2023/02/27 07:44:44;;;;;;;2.45;1.13;;;-0.70;89.40;;;;;;5027354;28;20222;-67
2023/02/27 07:47:11;;;;;;;2.15;1.42;;;-0.60;88.60;;;;;;5044959;28;20212;-68
2023/02/27 07:49:38;;;;;;;0.47;0.47;;;-0.60;87.70;;;;;;5036927;28;20196;-67
2023/02/27 07:52:06;;;;;;;0.47;0.47;;;-0.50;87.70;;;;;;5033185;28;20230;-68
2023/02/27 07:54:33;;;;;;;0.68;0.63;;;-0.50;87.60;;;;;;5047862;28;20578;-68
2023/02/27 07:57:00;;;;;;;0.40;0.40;;;-0.40;87.40;;;;;;5044277;28;20231;-68
2023/02/27 07:59:28;;;;;;;0.73;0.73;;;-0.30;87.20;;;;;;5060888;28;20752;-67
2023/02/27 08:01:55;;;;;;;0.88;0.88;;;-0.20;87.00;;;;;;5036451;28;20223;-68
2023/02/27 08:04:22;;;;;;;0.40;0.40;;;-0.10;86.10;;;;;;5031815;28;20245;-67
2023/02/27 08:06:48;;;;;;;0.60;0.60;;;-0.20;86.20;;;;;;5039310;28;20235;-67
2023/02/27 08:09:16;;;;;;;1.10;0.93;;;-0.10;86.50;;;;;;5047127;28;20199;-67
2023/02/27 08:11:43;;;;;;;0.55;0.55;;;-0.10;85.80;;;;;;5043915;28;20302;-68
2023/02/27 08:14:10;;;;;;;0.75;0.75;;;0.00;85.40;;;;;;5047004;28;20206;-67
2023/02/27 08:16:38;;;;;;;0.40;0.40;;;0.00;85.20;;;;;;5049688;28;20227;-67
2023/02/27 08:19:05;;;;;;;0.85;0.85;;;0.10;85.90;;;;;;5047590;28;20199;-67
2023/02/27 08:21:32;;;;;;;0.60;0.60;;;0.20;86.30;;;;;;5047415;28;20224;-67
2023/02/27 08:23:58;;;;;;;1.00;0.88;;;0.30;86.30;;;;;;5047316;28;20687;-67
2023/02/27 08:26:25;;;;;;;0.38;0.38;;;0.30;86.60;;;;;;5046912;28;20228;-67
2023/02/27 08:28:52;;;;;;;1.38;0.75;;;0.50;87.00;;;;;;5048031;28;20196;-67
2023/02/27 08:31:19;;;;;;;1.45;1.30;;;0.50;85.50;;;;;;5047720;28;20342;-68
2023/02/27 08:33:47;;;;;;;0.68;0.50;;;0.60;85.40;;;;;;5047678;28;20196;-67
2023/02/27 08:36:14;;;;;;;0.80;0.55;;;0.60;84.20;;;;;;5047332;28;20596;-69
2023/02/27 08:38:41;;;;;;;0.57;0.57;;;0.60;83.50;;;;;;5047208;28;20215;-68
2023/02/27 08:41:08;;;;;;;1.80;1.40;;;0.80;83.50;;;;;;5044605;28;20282;-68
2023/02/27 08:43:35;;;;;;;0.50;0.50;;;0.80;83.80;;;;;;5027935;28;20233;-67
2023/02/27 08:46:02;;;;;;;0.85;0.68;;;1.00;82.80;;;;;;5027671;28;20667;-68
2023/02/27 08:48:29;;;;;;;0.38;0.38;;;1.10;81.20;;;;;;5027824;28;20208;-67
2023/02/27 08:50:57;;;;;;;3.50;0.82;;;1.10;80.80;;;;;;5027523;28;20224;-67
2023/02/27 08:53:23;;;;;;;0.75;0.50;;;1.20;80.90;;;;;;5026437;28;20212;-67
2023/02/27 08:55:52;;;;;;;4.88;0.88;;;1.20;81.40;;;;;;5039239;28;20227;-68
2023/02/27 08:58:19;;;;;;;0.40;0.40;;;1.20;81.40;;;;;;5047123;28;20562;-67
2023/02/27 09:00:46;;;;;;;0.80;0.77;;;1.30;80.40;;;;;;5036956;28;20224;-67
2023/02/27 09:03:13;;;;;;;0.60;0.60;;;1.50;80.10;;;;;;5027377;28;20291;-67
2023/02/27 09:05:41;;;;;;;0.50;0.50;;;1.50;78.70;;;;;;5027264;28;20233;-68
2023/02/27 09:08:09;;;;;;;0.60;0.60;;;1.60;78.50;;;;;;5040513;28;20206;-67
2023/02/27 09:10:36;;;;;;;0.40;0.30;;;1.70;79.00;;;;;;5047258;28;20306;-67
2023/02/27 09:13:03;;;;;;;0.85;0.85;;;1.70;78.80;;;;;;5047631;28;20211;-68
2023/02/27 09:15:31;;;;;;;1.35;1.02;;;1.70;77.20;;;;;;5047110;28;20323;-68
2023/02/27 09:18:01;;;;;;;0.50;0.50;;;1.80;77.10;;;;;;5047319;28;20215;-68
2023/02/27 09:20:28;;;;;;;0.68;0.68;;;1.90;77.00;;;;;;5046791;28;20219;-67
2023/02/27 09:22:55;;;;;;;0.85;0.85;;;1.90;76.00;;;;;;5047541;28;20269;-68
2023/02/27 09:25:23;;;;;;;0.95;0.68;;;1.90;76.10;;;;;;5047129;28;20236;-68
2023/02/27 09:27:50;;;;;;;0.40;0.40;;;1.90;75.50;;;;;;5047148;28;20212;-68
2023/02/27 09:30:17;;;;;;;0.57;0.57;;;2.00;75.20;;;;;;5046912;28;20211;-68
2023/02/27 09:32:44;;;;;;;1.45;1.35;;;2.10;75.70;;;;;;5047005;28;20610;-67
2023/02/27 09:35:12;;;;;;;0.30;0.30;;;2.20;73.70;;;;;;5046525;28;20210;-68
2023/02/27 09:37:39;;;;;;;0.65;0.65;;;2.20;73.20;;;;;;5046984;28;20828;-68
2023/02/27 09:40:07;;;;;;;0.60;0.60;;;2.20;72.40;;;;;;5054044;28;20712;-67
2023/02/27 09:42:44;;;;;;;0.63;0.63;;;2.10;73.70;;;;;;5058967;28;20208;-68
2023/02/27 09:45:17;;;;;;;0.68;0.52;;;2.20;73.40;;;;;;5047039;28;20269;-68
2023/02/27 09:47:50;;;;;;;0.82;0.82;;;2.30;73.70;;;;;;5046550;28;20211;-68
2023/02/27 09:50:30;;;;;;;0.50;0.50;;;2.30;70.90;;;;;;5046223;28;20279;-68
2023/02/27 09:52:59;;;;;;;0.98;0.82;;;2.30;70.80;;;;;;5046847;28;20769;-68
2023/02/27 09:55:32;;;;;;;0.50;0.50;;;2.40;70.60;;;;;;5046875;28;20219;-68
2023/02/27 09:58:06;;;;;;;0.40;0.40;;;2.40;69.70;;;;;;5046619;28;20199;-69
2023/02/27 10:00:57;;;;;;;1.27;0.90;;;2.50;69.20;;;;;;5038114;28;20638;-68
2023/02/27 10:03:52;;;;;;;0.57;0.57;;;2.50;68.70;;;;;;5025667;28;20219;-68
2023/02/27 10:06:25;;;;;;;0.40;0.38;;;2.50;68.70;;;;;;5029987;28;20255;-68
2023/02/27 10:09:04;;;;;;;0.50;0.40;;;2.50;68.50;;;;;;5030819;28;20192;-68
2023/02/27 10:11:43;;;;;;;1.00;0.90;;;2.70;68.00;;;;;;5034305;28;20306;-68
2023/02/27 10:14:24;;;;;;;0.70;0.68;;;2.70;71.60;;;;;;5048837;28;21417;-68
2023/02/27 10:16:52;;;;;;;1.20;0.63;;;2.70;65.60;;;;;;5047184;28;20227;-69
2023/02/27 10:19:26;;;;;;;0.40;0.40;;;2.70;65.80;;;;;;5046720;28;20208;-68
2023/02/27 10:21:55;;;;;;;0.35;0.35;;;2.60;65.60;;;;;;5038937;28;20223;-68
2023/02/27 10:24:26;;;;;;;0.40;0.30;;;2.60;64.60;;;;;;5034115;28;20786;-68
2023/02/27 10:26:55;;;;;;;0.50;0.50;;;2.70;66.20;;;;;;5038084;28;20232;-68
2023/02/27 10:29:28;;;;;;;1.20;0.75;;;2.70;66.70;;;;;;5045370;28;20188;-68
2023/02/27 10:32:00;;;;;;;2.25;0.65;;;2.70;65.90;;;;;;5047027;28;20216;-68
2023/02/27 10:34:30;;;;;;;0.52;0.47;;;2.80;66.80;;;;;;5038021;28;20204;-68
2023/02/27 10:37:00;;;;;;;0.73;0.45;;;2.80;65.30;;;;;;5041901;28;20240;-68
2023/02/27 10:39:28;;;;;;;1.00;0.95;;;2.70;62.90;;;;;;5040321;28;20279;-68
2023/02/27 10:41:57;;;;;;;0.95;0.95;;;2.90;68.40;;;;;;5046105;28;20739;-68
2023/02/27 10:44:25;;;;;;;0.40;0.35;;;2.90;62.80;;;;;;5036524;28;20226;-68
2023/02/27 10:46:52;;;;;;;0.43;0.40;;;2.90;67.70;;;;;;5049120;28;20620;-68
2023/02/27 10:49:20;;;;;;;0.50;0.50;;;2.80;60.90;;;;;;5042384;28;20226;-68
2023/02/27 10:52:03;;;;;;;0.93;0.47;;;2.70;60.90;;;;;;5047515;28;20939;-68
2023/02/27 10:54:30;;;;;;;0.63;0.60;;;2.40;65.20;;;;;;5049257;28;20200;-68
2023/02/27 10:57:01;;;;;;;0.77;0.77;;;2.70;59.70;;;;;;5043313;28;20260;-68
2023/02/27 10:59:32;;;;;;;0.55;0.55;;;2.70;60.20;;;;;;5044450;28;20278;-68
2023/02/27 11:02:01;;;;;;;1.98;1.15;;;2.60;60.70;;;;;;5040681;28;20223;-69
2023/02/27 11:04:34;;;;;;;0.60;0.60;;;2.60;60.40;;;;;;5047687;28;20224;-68
2023/02/27 11:07:04;;;;;;;0.57;0.57;;;2.50;62.70;;;;;;5044817;28;20230;-68
2023/02/27 11:09:32;;;;;;;1.98;1.02;;;2.60;61.40;;;;;;5034934;28;20229;-68
2023/02/27 11:12:11;;;;;;;1.80;0.90;;;2.70;61.20;;;;;;5037798;28;20824;-68
2023/02/27 11:14:49;;;;;;;0.30;0.30;;;2.80;62.20;;;;;;5040564;28;20225;-68
2023/02/27 11:17:27;;;;;;;1.15;0.75;;;2.80;60.00;;;;;;5038632;28;20587;-68
2023/02/27 11:19:54;;;;;;;1.13;0.68;;;2.80;59.80;;;;;;5029152;28;20196;-68
2023/02/27 11:22:23;;;;;;;8.23;2.08;;;2.80;61.10;;;;;;5029736;28;20232;-69
2023/02/27 11:24:51;;;;;;;0.63;0.63;;;2.80;60.60;;;;;;5049063;28;20323;-68
2023/02/27 11:27:21;;;;;;;0.77;0.55;;;2.70;59.80;;;;;;5048325;28;20232;-68
2023/02/27 11:30:00;;;;;;;0.95;0.95;;;2.80;60.50;;;;;;5048012;28;20191;-68
2023/02/27 11:32:36;;;;;;;1.13;1.13;;;2.70;59.80;;;;;;5048258;28;20789;-68
2023/02/27 11:35:04;;;;;;;0.40;0.38;;;2.70;59.90;;;;;;5045551;28;20265;-68
2023/02/27 11:37:34;;;;;;;0.40;0.40;;;2.70;59.70;;;;;;5047615;28;20211;-68
2023/02/27 11:40:12;;;;;;;1.00;0.60;;;2.70;60.00;;;;;;5054443;28;20199;-69
2023/02/27 11:42:45;;;;;;;0.40;0.40;;;2.60;60.00;;;;;;5048378;28;20197;-68
2023/02/27 11:45:28;;;;;;;0.40;0.40;;;2.60;60.90;;;;;;5028954;28;20342;-68
2023/02/27 11:48:00;;;;;;;1.15;1.15;;;2.60;61.00;;;;;;5035174;28;20203;-68
2023/02/27 11:50:54;;;;;;;0.47;0.47;;;3.50;65.30;;;;;;5029286;28;20653;-68
2023/02/27 11:54:09;;;;;;;0.65;0.65;;;2.80;61.90;;;;;;5028279;28;21340;-68
2023/02/27 11:56:38;;;;;;;1.05;0.45;;;2.90;61.30;;;;;;5036202;28;20881;-69
2023/02/27 11:59:16;;;;;;;6.05;0.65;;;3.00;60.60;;;;;;5059312;28;20211;-68
2023/02/27 12:01:49;;;;;;;0.40;0.40;;;2.90;66.80;;;;;;5033081;28;20234;-67
2023/02/27 12:04:21;;;;;;;0.50;0.50;;;2.90;60.50;;;;;;5048093;28;20220;-68
2023/02/27 12:06:53;;;;;;;0.55;0.55;;;2.90;59.90;;;;;;5047363;28;20314;-68
2023/02/27 12:09:38;;;;;;;0.50;0.30;;;2.80;65.80;;;;;;5047509;28;20212;-69
2023/02/27 12:12:13;;;;;;;0.30;0.30;;;3.10;61.20;;;;;;5047271;28;20224;-68
2023/02/27 12:14:50;;;;;;;0.40;0.30;;;3.40;62.40;;;;;;5045549;28;20206;-67
2023/02/27 12:17:56;;;;;;;0.50;0.50;;;3.50;61.70;;;;;;5044231;28;20630;-71
2023/02/27 12:20:43;;;;;;;0.40;0.40;;;3.30;58.30;;;;;;5037859;28;20214;-70
2023/02/27 12:23:33;;;;;;;0.40;0.40;;;3.40;58.50;;;;;;5047178;28;20211;-71
2023/02/27 12:26:06;;;;;;;0.63;0.47;;;3.40;57.70;;;;;;5046057;28;20254;-70
2023/02/27 12:28:42;;;;;;;0.43;0.38;;;3.20;57.80;;;;;;5047340;28;20858;-69
2023/02/27 12:31:35;;;;;;;1.25;0.88;;;3.10;57.70;;;;;;5047234;28;20721;-68
2023/02/27 12:34:09;;;;;;;0.73;0.50;;;2.90;58.20;;;;;;5035399;28;20207;-69
2023/02/27 12:36:37;;;;;;;0.40;0.40;;;3.00;58.50;;;;;;5041578;28;20233;-69
2023/02/27 12:39:05;;;;;;;0.52;0.52;;;3.00;58.50;;;;;;5047296;28;20208;-68
2023/02/27 12:41:43;;;;;;;0.40;0.30;;;3.00;59.40;;;;;;5062609;28;20319;-69
2023/02/27 12:44:40;;;;;;;1.02;0.93;;;3.00;59.50;;;;;;5027847;28;20637;-71
2023/02/27 12:47:22;;;;;;;0.60;0.60;;;3.00;59.50;;;;;;5027362;28;20231;-69
2023/02/27 12:49:56;;;;;;;0.30;0.30;;;3.00;60.00;;;;;;5027607;28;20201;-71
2023/02/27 12:52:38;;;;;;;0.30;0.30;;;3.10;60.50;;;;;;5042485;28;20693;-71
2023/02/27 12:55:13;;;;;;;0.30;0.30;;;3.20;59.80;;;;;;5045172;28;20226;-71
2023/02/27 12:58:18;;;;;;;0.77;0.50;;;3.40;59.60;;;;;;5029837;28;20210;-71
2023/02/27 13:00:50;;;;;;;0.60;0.60;;;3.30;59.20;;;;;;4999690;28;20243;-70
2023/02/27 13:03:28;;;;;;;1.15;1.15;;;3.20;58.60;;;;;;5032589;28;20220;-71
2023/02/27 13:06:07;;;;;;;0.73;0.60;;;3.20;58.90;;;;;;5033121;28;20227;-71
2023/02/27 13:09:00;;;;;;;0.63;0.63;;;3.40;59.50;;;;;;5041444;28;20205;-71
2023/02/27 13:11:47;;;;;;;0.30;0.30;;;3.60;59.30;;;;;;5026690;28;20715;-70
2023/02/27 13:14:36;;;;;;;0.40;0.40;;;3.60;59.70;;;;;;5046271;28;20272;-72